Terminal Aerodrome Forecast
Issued by NWS Springfield, MO

Home | Current Version | Previous Version | Text Only | Print | Product List | Glossary On
Versions: 1 2 3 4 5 6 7 8 9 10 11 12
324
FTUS43 KSGF 212338
TAFSGF
TAF
KSGF 212338Z 2200/2224 19007KT P6SM FEW250
     FM221500 23011G16KT P6SM FEW060=

USA.gov is the U.S. government's official web portal to all federal, state and local government web resources and services.